Amalia, New Mexico
Current Conditions -  °F | °C
As of 7:55 AM on Sunday 23 Nov 2014 (Local Time) from KSKX Reporting Station
Overcast Overcast  
Wind Chill: 21°   Ceiling: 2700
Heat Index: 32°   Visibility: 3mi
Dew Point: 25°   Wind: 17mph
Humidity: 75%   Direction: 20°NNE
Pressure: 29.78"   Gusts: 23mph
Location:  36.94°N, 105.45°W
Report Text: KSKX 231455Z AUTO 02015G20KT 3SM SCT016 BKN027 OVC036 00/M04 A2978 RMK AO1 52020
Loading
Personal Weather Stations






























Interactive Weather Map New forecast layout! Learn more

10-Day Weather Forecast

Advertisements
Track Severe Weather on mobile